Joetown, Iowa
Current Conditions -  °F | °C
As of 8:15 PM on Thursday 20 Nov 2014 (Local Time) from KAWG Reporting Station
Clear Clear  
Wind Chill: 11°   Ceiling: Unl
Heat Index: 18°   Visibility: 10mi
Dew Point: 10°   Wind: 5mph
Humidity: 73%   Direction: 350°N
Pressure: 30.28"   Gusts: NA
Location:  41.4676°N, 91.7053°W
Report Text: KAWG 210215Z AUTO 35004KT 10SM CLR M08/M12 A3028 RMK AO2
Loading
Personal Weather Stations






























Interactive Weather Map New forecast layout! Learn more

10-Day Weather Forecast

Advertisements
Track Severe Weather on mobile